FAGG

George Airport

George, South Africa
METAR FAGG 160603Z 33005KT CAVOK 09/07 Q1017
Observed Flight Rules
Aug-16 @ 06:03 UTC (13 minutes ago) Visual Flight Rules
Wind Visibility Clouds
330° at 5 knots 10,000+ meters
  • Clear skies
Temperatures Readings
Current 9°C / 48°F
Dewpoint 7°C / 45°F
Humidity 87%
Altimeter 30.03" Hg
Pressure 1017 hPa
Elevation 193
METAR FAGG 160603Z 33005KT CAVOK 09/07 Q1017
Observed Flight Rules
Aug-16 @ 06:03 UTC
(13 minutes ago)
VFR
Wind Visibility
330° at 5 knots 10,000+ meters
Clouds
  • Clear skies
Temperature Dewpoint
9°C / 48°F 7°C / 45°F
Humidity Altimeter Pressure
87% 30.03" Hg 1017 hPa